sensor_id;sensor_type;location;lat;lon;timestamp;pressure;altitude;pressure_sealevel;temperature;humidity
21185;BME280;18176;49.502;11.754;2022-12-18T00:00:39;98200.47;;;0.18;54.90
21185;BME280;18176;49.502;11.754;2022-12-18T00:04:39;98183.69;;;0.02;55.02
21185;BME280;18176;49.502;11.754;2022-12-18T00:08:43;98194.47;;;0.27;54.91
21185;BME280;18176;49.502;11.754;2022-12-18T00:12:43;98199.38;;;0.30;54.85
21185;BME280;18176;49.502;11.754;2022-12-18T00:16:45;98204.03;;;0.17;55.14
21185;BME280;18176;49.502;11.754;2022-12-18T00:20:45;98210.91;;;0.18;55.36
21185;BME280;18176;49.502;11.754;2022-12-18T00:24:48;98208.81;;;0.12;55.47
21185;BME280;18176;49.502;11.754;2022-12-18T00:28:49;98146.88;;;-0.24;55.17
21185;BME280;18176;49.502;11.754;2022-12-18T00:32:50;98235.75;;;0.32;55.06
21185;BME280;18176;49.502;11.754;2022-12-18T00:36:50;98225.84;;;0.26;54.90
21185;BME280;18176;49.502;11.754;2022-12-18T00:40:54;98226.78;;;0.15;55.28
21185;BME280;18176;49.502;11.754;2022-12-18T00:44:54;98238.09;;;0.25;55.11
21185;BME280;18176;49.502;11.754;2022-12-18T00:48:54;98233.94;;;0.13;55.42
21185;BME280;18176;49.502;11.754;2022-12-18T00:52:54;98200.56;;;0.07;55.26
21185;BME280;18176;49.502;11.754;2022-12-18T00:56:57;98234.34;;;0.28;54.98
21185;BME280;18176;49.502;11.754;2022-12-18T01:00:58;98250.16;;;0.26;55.00
21185;BME280;18176;49.502;11.754;2022-12-18T01:04:58;98246.59;;;0.27;54.98
21185;BME280;18176;49.502;11.754;2022-12-18T01:08:58;98239.56;;;0.28;54.81
21185;BME280;18176;49.502;11.754;2022-12-18T01:13:02;98249.63;;;0.32;54.57
21185;BME280;18176;49.502;11.754;2022-12-18T01:17:02;98246.44;;;0.29;54.53
21185;BME280;18176;49.502;11.754;2022-12-18T01:21:07;98242.19;;;0.28;54.46
21185;BME280;18176;49.502;11.754;2022-12-18T01:25:08;98229.44;;;-0.15;54.31
21185;BME280;18176;49.502;11.754;2022-12-18T01:29:11;98263.03;;;-0.12;54.91
21185;BME280;18176;49.502;11.754;2022-12-18T01:33:12;98240.88;;;-0.27;54.63
21185;BME280;18176;49.502;11.754;2022-12-18T01:37:12;98264.72;;;-0.32;54.87
21185;BME280;18176;49.502;11.754;2022-12-18T01:41:14;98246.63;;;-0.33;54.93
21185;BME280;18176;49.502;11.754;2022-12-18T01:45:31;98260.34;;;-0.31;54.87
21185;BME280;18176;49.502;11.754;2022-12-18T01:49:31;98232.66;;;-0.62;55.20
21185;BME280;18176;49.502;11.754;2022-12-18T01:53:32;98236.09;;;-0.52;55.05
21185;BME280;18176;49.502;11.754;2022-12-18T01:57:33;98247.41;;;-0.42;54.78
21185;BME280;18176;49.502;11.754;2022-12-18T02:01:37;98272.78;;;-0.14;54.66
21185;BME280;18176;49.502;11.754;2022-12-18T02:05:46;98247.75;;;-0.26;54.81
21185;BME280;18176;49.502;11.754;2022-12-18T02:09:54;98277.19;;;-0.05;54.65
21185;BME280;18176;49.502;11.754;2022-12-18T02:14:10;98278.84;;;-0.04;54.56
21185;BME280;18176;49.502;11.754;2022-12-18T02:18:23;98286.56;;;0.07;54.39
21185;BME280;18176;49.502;11.754;2022-12-18T02:22:30;98269.28;;;0.06;54.20
21185;BME280;18176;49.502;11.754;2022-12-18T02:26:43;98272.03;;;0.14;54.43
21185;BME280;18176;49.502;11.754;2022-12-18T02:30:49;98271.19;;;0.04;54.16
21185;BME280;18176;49.502;11.754;2022-12-18T02:34:52;98279.19;;;0.12;54.28
21185;BME280;18176;49.502;11.754;2022-12-18T02:39:00;98277.53;;;0.11;54.30
21185;BME280;18176;49.502;11.754;2022-12-18T02:43:12;98281.66;;;0.14;54.32
21185;BME280;18176;49.502;11.754;2022-12-18T02:47:16;98276.47;;;0.23;54.26
21185;BME280;18176;49.502;11.754;2022-12-18T02:51:25;98256.59;;;0.22;53.94
21185;BME280;18176;49.502;11.754;2022-12-18T02:55:47;98263.28;;;0.15;53.77
21185;BME280;18176;49.502;11.754;2022-12-18T03:00:03;98241.22;;;-0.11;53.78
21185;BME280;18176;49.502;11.754;2022-12-18T03:04:11;98266.44;;;0.09;53.89
21185;BME280;18176;49.502;11.754;2022-12-18T03:08:20;98266.25;;;0.01;53.54
21185;BME280;18176;49.502;11.754;2022-12-18T03:12:30;98276.31;;;-0.15;53.89
21185;BME280;18176;49.502;11.754;2022-12-18T03:16:35;98267.03;;;-0.08;53.89
21185;BME280;18176;49.502;11.754;2022-12-18T03:20:39;98260.94;;;-0.18;53.97
21185;BME280;18176;49.502;11.754;2022-12-18T03:24:48;98260.69;;;-0.15;54.04
21185;BME280;18176;49.502;11.754;2022-12-18T03:28:52;98233.22;;;-0.29;54.01
21185;BME280;18176;49.502;11.754;2022-12-18T03:33:05;98270.31;;;-0.06;54.10
21185;BME280;18176;49.502;11.754;2022-12-18T03:37:11;98282.53;;;-0.07;54.10
21185;BME280;18176;49.502;11.754;2022-12-18T03:41:21;98274.88;;;-0.29;53.57
21185;BME280;18176;49.502;11.754;2022-12-18T03:45:58;98288.91;;;-0.20;53.97
21185;BME280;18176;49.502;11.754;2022-12-18T03:50:13;98283.00;;;-0.22;54.04
21185;BME280;18176;49.502;11.754;2022-12-18T03:54:18;98279.63;;;-0.13;54.07
21185;BME280;18176;49.502;11.754;2022-12-18T03:58:28;98285.47;;;0.00;54.07
21185;BME280;18176;49.502;11.754;2022-12-18T04:02:46;98289.25;;;-0.04;53.85
21185;BME280;18176;49.502;11.754;2022-12-18T04:06:57;98259.06;;;-0.16;53.90
21185;BME280;18176;49.502;11.754;2022-12-18T04:10:58;98293.44;;;0.08;53.77
21185;BME280;18176;49.502;11.754;2022-12-18T04:14:58;98292.63;;;0.17;53.49
21185;BME280;18176;49.502;11.754;2022-12-18T04:18:59;98303.06;;;0.17;53.35
21185;BME280;18176;49.502;11.754;2022-12-18T04:23:07;98291.75;;;0.07;53.54
21185;BME280;18176;49.502;11.754;2022-12-18T04:27:09;98244.34;;;-0.27;53.62
21185;BME280;18176;49.502;11.754;2022-12-18T04:31:13;98255.81;;;-0.29;53.84
21185;BME280;18176;49.502;11.754;2022-12-18T04:35:14;98303.59;;;0.11;53.92
21185;BME280;18176;49.502;11.754;2022-12-18T04:39:17;98294.25;;;0.09;53.54
21185;BME280;18176;49.502;11.754;2022-12-18T04:43:20;98294.03;;;0.21;53.74
21185;BME280;18176;49.502;11.754;2022-12-18T04:47:20;98320.47;;;0.56;53.62
21185;BME280;18176;49.502;11.754;2022-12-18T04:51:20;98324.56;;;0.49;53.31
21185;BME280;18176;49.502;11.754;2022-12-18T04:55:28;98315.50;;;0.34;53.62
21185;BME280;18176;49.502;11.754;2022-12-18T04:59:28;98313.00;;;0.33;53.71
21185;BME280;18176;49.502;11.754;2022-12-18T05:03:29;98279.78;;;0.25;53.98
21185;BME280;18176;49.502;11.754;2022-12-18T05:07:29;98308.38;;;0.55;53.92
21185;BME280;18176;49.502;11.754;2022-12-18T05:11:32;98286.97;;;0.42;53.85
21185;BME280;18176;49.502;11.754;2022-12-18T05:15:33;98315.72;;;0.71;53.71
21185;BME280;18176;49.502;11.754;2022-12-18T05:19:34;98318.88;;;0.75;53.73
21185;BME280;18176;49.502;11.754;2022-12-18T05:23:34;98313.63;;;0.65;53.90
21185;BME280;18176;49.502;11.754;2022-12-18T05:27:38;98318.03;;;0.64;54.00
21185;BME280;18176;49.502;11.754;2022-12-18T05:31:38;98322.72;;;0.70;53.96
21185;BME280;18176;49.502;11.754;2022-12-18T05:35:40;98290.84;;;0.57;53.86
21185;BME280;18176;49.502;11.754;2022-12-18T05:39:40;98264.72;;;0.38;54.27
21185;BME280;18176;49.502;11.754;2022-12-18T05:43:44;98333.47;;;0.87;54.76
21185;BME280;18176;49.502;11.754;2022-12-18T05:47:44;98339.75;;;0.75;55.68
21185;BME280;18176;49.502;11.754;2022-12-18T05:51:44;98330.78;;;0.67;56.06
21185;BME280;18176;49.502;11.754;2022-12-18T05:55:45;98328.78;;;0.81;55.94
21185;BME280;18176;49.502;11.754;2022-12-18T05:59:48;98298.75;;;0.37;56.58
21185;BME280;18176;49.502;11.754;2022-12-18T06:03:49;98341.78;;;0.61;56.94
21185;BME280;18176;49.502;11.754;2022-12-18T06:07:49;98332.34;;;0.80;56.50
21185;BME280;18176;49.502;11.754;2022-12-18T06:11:52;98334.78;;;0.71;56.80
21185;BME280;18176;49.502;11.754;2022-12-18T06:15:55;98319.38;;;0.49;56.79
21185;BME280;18176;49.502;11.754;2022-12-18T06:19:55;98349.75;;;0.69;56.67
21185;BME280;18176;49.502;11.754;2022-12-18T06:23:55;98346.09;;;0.91;55.97
21185;BME280;18176;49.502;11.754;2022-12-18T06:27:55;98349.66;;;0.90;56.35
21185;BME280;18176;49.502;11.754;2022-12-18T06:31:58;98366.19;;;1.10;55.75
21185;BME280;18176;49.502;11.754;2022-12-18T06:36:01;98360.41;;;1.16;55.74
21185;BME280;18176;49.502;11.754;2022-12-18T06:40:03;98355.69;;;0.91;56.52
21185;BME280;18176;49.502;11.754;2022-12-18T06:44:03;98353.78;;;0.93;56.45
21185;BME280;18176;49.502;11.754;2022-12-18T06:48:06;98325.59;;;0.67;56.61
21185;BME280;18176;49.502;11.754;2022-12-18T06:52:07;98363.53;;;0.91;56.89
21185;BME280;18176;49.502;11.754;2022-12-18T06:56:07;98357.56;;;0.69;57.01
21185;BME280;18176;49.502;11.754;2022-12-18T07:00:09;98393.09;;;1.01;56.82
21185;BME280;18176;49.502;11.754;2022-12-18T07:04:12;98398.84;;;1.04;56.65
21185;BME280;18176;49.502;11.754;2022-12-18T07:08:12;98386.97;;;0.81;56.92
21185;BME280;18176;49.502;11.754;2022-12-18T07:12:12;98361.47;;;1.04;56.37
21185;BME280;18176;49.502;11.754;2022-12-18T07:16:15;98361.78;;;1.20;56.09
21185;BME280;18176;49.502;11.754;2022-12-18T07:20:24;98352.16;;;1.20;56.16
21185;BME280;18176;49.502;11.754;2022-12-18T07:24:24;98360.69;;;1.13;56.08
21185;BME280;18176;49.502;11.754;2022-12-18T07:28:24;98354.06;;;1.09;56.12
21185;BME280;18176;49.502;11.754;2022-12-18T07:32:24;98375.94;;;1.08;56.31
21185;BME280;18176;49.502;11.754;2022-12-18T07:36:27;98341.19;;;1.17;55.81
21185;BME280;18176;49.502;11.754;2022-12-18T07:40:27;98367.00;;;1.10;56.11
21185;BME280;18176;49.502;11.754;2022-12-18T07:44:27;98311.22;;;0.83;56.16
21185;BME280;18176;49.502;11.754;2022-12-18T07:48:28;98389.13;;;1.16;56.01
21185;BME280;18176;49.502;11.754;2022-12-18T07:52:31;98406.06;;;1.31;55.87
21185;BME280;18176;49.502;11.754;2022-12-18T07:56:31;98401.94;;;1.38;55.70
21185;BME280;18176;49.502;11.754;2022-12-18T08:00:31;98414.84;;;1.30;55.87
21185;BME280;18176;49.502;11.754;2022-12-18T08:04:31;98409.63;;;1.30;55.80
21185;BME280;18176;49.502;11.754;2022-12-18T08:08:35;98397.13;;;1.33;55.70
21185;BME280;18176;49.502;11.754;2022-12-18T08:12:35;98389.69;;;1.48;55.54
21185;BME280;18176;49.502;11.754;2022-12-18T08:16:36;98393.41;;;1.46;55.26
21185;BME280;18176;49.502;11.754;2022-12-18T08:20:36;98417.91;;;1.54;55.15
21185;BME280;18176;49.502;11.754;2022-12-18T08:24:41;98385.69;;;1.25;55.22
21185;BME280;18176;49.502;11.754;2022-12-18T08:28:42;98414.72;;;1.41;55.91
21185;BME280;18176;49.502;11.754;2022-12-18T08:32:42;98303.53;;;1.00;55.54
21185;BME280;18176;49.502;11.754;2022-12-18T08:36:42;98403.59;;;1.58;55.28
21185;BME280;18176;49.502;11.754;2022-12-18T08:40:45;98419.69;;;1.54;56.19
21185;BME280;18176;49.502;11.754;2022-12-18T08:44:45;98416.50;;;1.88;55.34
21185;BME280;18176;49.502;11.754;2022-12-18T08:48:46;98420.59;;;2.00;54.34
21185;BME280;18176;49.502;11.754;2022-12-18T08:52:46;98409.59;;;1.97;54.38
21185;BME280;18176;49.502;11.754;2022-12-18T08:56:49;98428.41;;;2.20;53.76
21185;BME280;18176;49.502;11.754;2022-12-18T09:00:49;98402.75;;;1.77;54.05
21185;BME280;18176;49.502;11.754;2022-12-18T09:04:49;98431.63;;;1.94;54.21
21185;BME280;18176;49.502;11.754;2022-12-18T09:08:53;98430.94;;;1.92;54.27
21185;BME280;18176;49.502;11.754;2022-12-18T09:12:56;98395.31;;;1.15;54.77
21185;BME280;18176;49.502;11.754;2022-12-18T09:16:56;98427.53;;;1.63;54.86
21185;BME280;18176;49.502;11.754;2022-12-18T09:20:57;98416.38;;;1.61;54.10
21185;BME280;18176;49.502;11.754;2022-12-18T09:24:57;98411.28;;;1.79;54.06
21185;BME280;18176;49.502;11.754;2022-12-18T09:28:59;98378.84;;;1.62;53.82
21185;BME280;18176;49.502;11.754;2022-12-18T09:33:00;98419.53;;;1.84;54.13
21185;BME280;18176;49.502;11.754;2022-12-18T09:37:03;98337.59;;;1.56;53.53
21185;BME280;18176;49.502;11.754;2022-12-18T09:41:20;98416.25;;;1.82;54.42
21185;BME280;18176;49.502;11.754;2022-12-18T09:45:30;98409.03;;;2.12;54.00
21185;BME280;18176;49.502;11.754;2022-12-18T09:49:44;98398.03;;;2.19;53.19
21185;BME280;18176;49.502;11.754;2022-12-18T09:53:50;98414.56;;;2.09;53.31
21185;BME280;18176;49.502;11.754;2022-12-18T09:57:57;98403.75;;;2.32;53.58
21185;BME280;18176;49.502;11.754;2022-12-18T10:02:17;98404.28;;;2.35;53.09
21185;BME280;18176;49.502;11.754;2022-12-18T10:06:25;98379.66;;;1.63;54.06
21185;BME280;18176;49.502;11.754;2022-12-18T10:10:36;98332.00;;;1.13;54.07
21185;BME280;18176;49.502;11.754;2022-12-18T10:14:48;98368.63;;;1.78;53.86
21185;BME280;18176;49.502;11.754;2022-12-18T10:19:12;98387.03;;;2.05;53.23
21185;BME280;18176;49.502;11.754;2022-12-18T10:23:26;98387.63;;;1.80;53.64
21185;BME280;18176;49.502;11.754;2022-12-18T10:27:31;98384.53;;;2.13;53.00
21185;BME280;18176;49.502;11.754;2022-12-18T10:31:32;98366.09;;;2.15;53.05
21185;BME280;18176;49.502;11.754;2022-12-18T10:35:36;98313.63;;;1.80;53.13
21185;BME280;18176;49.502;11.754;2022-12-18T10:39:37;98357.84;;;2.00;53.57
21185;BME280;18176;49.502;11.754;2022-12-18T10:43:39;98356.72;;;2.22;52.85
21185;BME280;18176;49.502;11.754;2022-12-18T10:47:43;98349.03;;;2.21;52.85
21185;BME280;18176;49.502;11.754;2022-12-18T10:51:48;98360.25;;;2.31;52.84
21185;BME280;18176;49.502;11.754;2022-12-18T10:55:49;98341.63;;;2.06;52.97
21185;BME280;18176;49.502;11.754;2022-12-18T10:59:53;98357.81;;;2.20;52.36
21185;BME280;18176;49.502;11.754;2022-12-18T11:04:04;98376.19;;;2.37;52.44
21185;BME280;18176;49.502;11.754;2022-12-18T11:08:21;98369.84;;;2.40;51.55
21185;BME280;18176;49.502;11.754;2022-12-18T11:12:23;98375.31;;;3.28;50.45
21185;BME280;18176;49.502;11.754;2022-12-18T11:16:23;98377.09;;;3.27;50.02
21185;BME280;18176;49.502;11.754;2022-12-18T11:20:31;98373.63;;;2.64;51.21
21185;BME280;18176;49.502;11.754;2022-12-18T11:24:37;98355.81;;;2.41;51.49
21185;BME280;18176;49.502;11.754;2022-12-18T11:28:41;98369.28;;;2.46;51.91
21185;BME280;18176;49.502;11.754;2022-12-18T11:32:45;98370.88;;;2.56;51.70
21185;BME280;18176;49.502;11.754;2022-12-18T11:36:48;98366.31;;;2.85;51.31
21185;BME280;18176;49.502;11.754;2022-12-18T11:40:58;98367.00;;;3.15;50.54
21185;BME280;18176;49.502;11.754;2022-12-18T11:45:17;98336.94;;;2.74;51.11
21185;BME280;18176;49.502;11.754;2022-12-18T11:49:25;98363.38;;;3.16;50.71
21185;BME280;18176;49.502;11.754;2022-12-18T11:53:28;98363.38;;;2.98;50.84
21185;BME280;18176;49.502;11.754;2022-12-18T11:57:43;98366.09;;;3.24;50.54
21185;BME280;18176;49.502;11.754;2022-12-18T12:01:52;98354.34;;;3.10;50.44
21185;BME280;18176;49.502;11.754;2022-12-18T12:06:08;98350.44;;;3.14;50.64
21185;BME280;18176;49.502;11.754;2022-12-18T12:10:35;98342.59;;;3.14;50.90
21185;BME280;18176;49.502;11.754;2022-12-18T12:14:51;98312.75;;;3.07;50.80
21185;BME280;18176;49.502;11.754;2022-12-18T12:19:16;98322.75;;;3.29;50.66
21185;BME280;18176;49.502;11.754;2022-12-18T12:23:33;98325.16;;;3.40;50.45
21185;BME280;18176;49.502;11.754;2022-12-18T12:27:44;98331.53;;;3.81;49.34
21185;BME280;18176;49.502;11.754;2022-12-18T12:32:07;98317.81;;;4.13;48.89
21185;BME280;18176;49.502;11.754;2022-12-18T12:36:30;98242.03;;;3.50;49.80
21185;BME280;18176;49.502;11.754;2022-12-18T12:40:43;98279.78;;;3.83;49.18
21185;BME280;18176;49.502;11.754;2022-12-18T12:44:56;98264.81;;;3.76;49.06
21185;BME280;18176;49.502;11.754;2022-12-18T12:49:07;98312.88;;;3.59;49.97
21185;BME280;18176;49.502;11.754;2022-12-18T12:53:22;98244.22;;;2.94;51.13
21185;BME280;18176;49.502;11.754;2022-12-18T12:57:33;98287.75;;;3.30;50.82
21185;BME280;18176;49.502;11.754;2022-12-18T13:01:41;98293.78;;;3.13;51.52
21185;BME280;18176;49.502;11.754;2022-12-18T13:05:58;98229.94;;;3.06;50.81
21185;BME280;18176;49.502;11.754;2022-12-18T13:10:33;98304.28;;;3.31;51.26
21185;BME280;18176;49.502;11.754;2022-12-18T13:14:37;98320.38;;;3.79;50.16
21185;BME280;18176;49.502;11.754;2022-12-18T13:18:38;98313.94;;;3.91;49.94
21185;BME280;18176;49.502;11.754;2022-12-18T13:22:46;98317.78;;;3.62;50.36
21185;BME280;18176;49.502;11.754;2022-12-18T13:26:47;98312.53;;;3.62;50.39
21185;BME280;18176;49.502;11.754;2022-12-18T13:30:53;98330.72;;;3.81;50.03
21185;BME280;18176;49.502;11.754;2022-12-18T13:35:37;98309.44;;;3.40;50.64
21185;BME280;18176;49.502;11.754;2022-12-18T13:39:40;98328.06;;;3.55;50.47
21185;BME280;18176;49.502;11.754;2022-12-18T13:43:46;98324.91;;;3.34;51.12
21185;BME280;18176;49.502;11.754;2022-12-18T13:47:48;98313.88;;;3.22;51.16
21185;BME280;18176;49.502;11.754;2022-12-18T13:51:51;98312.59;;;3.26;51.33
21185;BME280;18176;49.502;11.754;2022-12-18T13:55:56;98302.25;;;3.07;51.69
21185;BME280;18176;49.502;11.754;2022-12-18T13:59:57;98299.88;;;2.96;52.00
21185;BME280;18176;49.502;11.754;2022-12-18T14:04:10;98303.47;;;3.13;51.96
21185;BME280;18176;49.502;11.754;2022-12-18T14:08:14;98319.75;;;2.89;52.56
21185;BME280;18176;49.502;11.754;2022-12-18T14:12:22;98332.34;;;3.03;52.04
21185;BME280;18176;49.502;11.754;2022-12-18T14:16:36;98337.88;;;3.00;52.13
21185;BME280;18176;49.502;11.754;2022-12-18T14:20:43;98297.16;;;2.88;51.91
21185;BME280;18176;49.502;11.754;2022-12-18T14:25:15;98298.66;;;2.73;52.76
21185;BME280;18176;49.502;11.754;2022-12-18T14:29:25;98255.78;;;2.02;53.55
21185;BME280;18176;49.502;11.754;2022-12-18T14:33:27;98264.56;;;2.10;53.80
21185;BME280;18176;49.502;11.754;2022-12-18T14:37:27;98287.69;;;2.33;53.79
21185;BME280;18176;49.502;11.754;2022-12-18T14:41:28;98288.53;;;1.96;54.34
21185;BME280;18176;49.502;11.754;2022-12-18T14:45:41;98305.53;;;2.20;54.28
21185;BME280;18176;49.502;11.754;2022-12-18T14:49:43;98269.25;;;2.07;53.89
21185;BME280;18176;49.502;11.754;2022-12-18T14:53:47;98298.06;;;2.25;53.98
21185;BME280;18176;49.502;11.754;2022-12-18T14:57:54;98291.81;;;2.08;54.20
21185;BME280;18176;49.502;11.754;2022-12-18T15:02:04;98303.09;;;2.08;54.34
21185;BME280;18176;49.502;11.754;2022-12-18T15:06:26;98302.53;;;2.05;54.48
21185;BME280;18176;49.502;11.754;2022-12-18T15:10:29;98285.38;;;2.02;54.41
21185;BME280;18176;49.502;11.754;2022-12-18T15:14:38;98296.13;;;2.27;54.02
21185;BME280;18176;49.502;11.754;2022-12-18T15:18:43;98284.72;;;2.28;53.50
21185;BME280;18176;49.502;11.754;2022-12-18T15:22:47;98313.97;;;2.41;53.14
21185;BME280;18176;49.502;11.754;2022-12-18T15:26:48;98302.34;;;2.26;53.25
21185;BME280;18176;49.502;11.754;2022-12-18T15:31:22;98298.91;;;2.25;53.24
21185;BME280;18176;49.502;11.754;2022-12-18T15:35:25;98292.78;;;2.07;53.69
21185;BME280;18176;49.502;11.754;2022-12-18T15:39:26;98289.94;;;1.91;53.72
21185;BME280;18176;49.502;11.754;2022-12-18T15:43:27;98316.44;;;2.05;53.43
21185;BME280;18176;49.502;11.754;2022-12-18T15:47:36;98322.41;;;1.88;53.85
21185;BME280;18176;49.502;11.754;2022-12-18T15:51:39;98321.09;;;1.65;53.85
21185;BME280;18176;49.502;11.754;2022-12-18T15:55:43;98318.09;;;1.41;54.44
21185;BME280;18176;49.502;11.754;2022-12-18T15:59:57;98318.66;;;1.25;54.46
21185;BME280;18176;49.502;11.754;2022-12-18T16:04:00;98293.38;;;1.16;54.41
21185;BME280;18176;49.502;11.754;2022-12-18T16:08:04;98312.31;;;1.09;54.80
21185;BME280;18176;49.502;11.754;2022-12-18T16:12:04;98305.19;;;1.01;54.95
21185;BME280;18176;49.502;11.754;2022-12-18T16:16:08;98319.44;;;0.97;55.47
21185;BME280;18176;49.502;11.754;2022-12-18T16:20:13;98300.78;;;1.02;54.99
21185;BME280;18176;49.502;11.754;2022-12-18T16:24:20;98306.00;;;1.02;54.82
21185;BME280;18176;49.502;11.754;2022-12-18T16:28:21;98307.09;;;1.09;54.18
21185;BME280;18176;49.502;11.754;2022-12-18T16:32:22;98300.91;;;1.00;54.13
21185;BME280;18176;49.502;11.754;2022-12-18T16:36:22;98280.28;;;0.59;54.52
21185;BME280;18176;49.502;11.754;2022-12-18T16:40:25;98294.97;;;0.69;54.75
21185;BME280;18176;49.502;11.754;2022-12-18T16:44:25;98310.09;;;0.76;54.06
21185;BME280;18176;49.502;11.754;2022-12-18T16:48:26;98308.31;;;0.66;54.02
21185;BME280;18176;49.502;11.754;2022-12-18T16:52:30;98279.31;;;0.50;54.25
21185;BME280;18176;49.502;11.754;2022-12-18T16:56:34;98296.97;;;0.47;54.59
21185;BME280;18176;49.502;11.754;2022-12-18T17:00:34;98279.78;;;0.25;54.71
21185;BME280;18176;49.502;11.754;2022-12-18T17:04:37;98289.41;;;0.34;54.38
21185;BME280;18176;49.502;11.754;2022-12-18T17:08:38;98305.91;;;0.44;54.46
21185;BME280;18176;49.502;11.754;2022-12-18T17:12:41;98296.00;;;0.38;55.34
21185;BME280;18176;49.502;11.754;2022-12-18T17:16:41;98258.94;;;0.25;55.17
21185;BME280;18176;49.502;11.754;2022-12-18T17:20:41;98289.97;;;0.38;55.41
21185;BME280;18176;49.502;11.754;2022-12-18T17:24:42;98279.81;;;0.44;55.07
21185;BME280;18176;49.502;11.754;2022-12-18T17:28:44;98271.59;;;0.49;54.48
21185;BME280;18176;49.502;11.754;2022-12-18T17:32:44;98286.69;;;0.45;54.68
21185;BME280;18176;49.502;11.754;2022-12-18T17:36:45;98216.41;;;-0.15;54.71
21185;BME280;18176;49.502;11.754;2022-12-18T17:40:45;98280.09;;;0.41;54.19
21185;BME280;18176;49.502;11.754;2022-12-18T17:44:49;98289.41;;;0.44;54.06
21185;BME280;18176;49.502;11.754;2022-12-18T17:48:50;98284.81;;;0.57;53.64
21185;BME280;18176;49.502;11.754;2022-12-18T17:52:54;98276.84;;;0.58;53.54
21185;BME280;18176;49.502;11.754;2022-12-18T17:56:55;98272.00;;;0.44;53.58
21185;BME280;18176;49.502;11.754;2022-12-18T18:01:00;98271.06;;;0.55;53.36
21185;BME280;18176;49.502;11.754;2022-12-18T18:05:01;98265.56;;;0.39;53.45
21185;BME280;18176;49.502;11.754;2022-12-18T18:09:01;98278.69;;;0.37;53.38
21185;BME280;18176;49.502;11.754;2022-12-18T18:13:05;98273.16;;;0.21;53.45
21185;BME280;18176;49.502;11.754;2022-12-18T18:17:20;98273.91;;;0.03;53.88
21185;BME280;18176;49.502;11.754;2022-12-18T18:21:20;98278.59;;;-0.01;54.63
21185;BME280;18176;49.502;11.754;2022-12-18T18:25:21;98261.56;;;-0.05;54.27
21185;BME280;18176;49.502;11.754;2022-12-18T18:29:24;98279.91;;;-0.07;54.57
21185;BME280;18176;49.502;11.754;2022-12-18T18:33:29;98290.34;;;-0.07;54.08
21185;BME280;18176;49.502;11.754;2022-12-18T18:37:29;98289.25;;;-0.04;53.98
21185;BME280;18176;49.502;11.754;2022-12-18T18:41:29;98252.53;;;-0.31;53.84
21185;BME280;18176;49.502;11.754;2022-12-18T18:45:30;98251.25;;;-0.37;53.94
21185;BME280;18176;49.502;11.754;2022-12-18T18:49:33;98242.44;;;-0.45;53.94
21185;BME280;18176;49.502;11.754;2022-12-18T18:53:36;98266.09;;;-0.37;54.02
21185;BME280;18176;49.502;11.754;2022-12-18T18:57:37;98256.16;;;-0.43;54.28
21185;BME280;18176;49.502;11.754;2022-12-18T19:01:38;98264.75;;;-0.52;54.38
21185;BME280;18176;49.502;11.754;2022-12-18T19:05:41;98274.09;;;-0.71;54.40
21185;BME280;18176;49.502;11.754;2022-12-18T19:09:43;98257.59;;;-0.81;54.38
21185;BME280;18176;49.502;11.754;2022-12-18T19:13:48;98204.03;;;-0.83;53.93
21185;BME280;18176;49.502;11.754;2022-12-18T19:17:48;98226.31;;;-0.90;54.03
21185;BME280;18176;49.502;11.754;2022-12-18T19:21:52;98258.22;;;-0.67;53.53
21185;BME280;18176;49.502;11.754;2022-12-18T19:25:52;98249.28;;;-0.95;53.88
21185;BME280;18176;49.502;11.754;2022-12-18T19:30:12;98265.88;;;-0.87;53.66
21185;BME280;18176;49.502;11.754;2022-12-18T19:34:13;98261.38;;;-0.85;53.43
21185;BME280;18176;49.502;11.754;2022-12-18T19:38:16;98216.31;;;-1.06;53.27
21185;BME280;18176;49.502;11.754;2022-12-18T19:42:16;98256.63;;;-0.80;52.99
21185;BME280;18176;49.502;11.754;2022-12-18T19:46:25;98189.13;;;-1.22;52.88
21185;BME280;18176;49.502;11.754;2022-12-18T19:50:26;98267.50;;;-0.75;52.83
21185;BME280;18176;49.502;11.754;2022-12-18T19:54:31;98260.63;;;-0.55;52.25
21185;BME280;18176;49.502;11.754;2022-12-18T19:58:31;98260.69;;;-0.66;51.83
21185;BME280;18176;49.502;11.754;2022-12-18T20:02:32;98255.19;;;-0.73;52.02
21185;BME280;18176;49.502;11.754;2022-12-18T20:06:35;98240.50;;;-0.74;52.02
21185;BME280;18176;49.502;11.754;2022-12-18T20:10:47;98253.75;;;-1.18;52.89
21185;BME280;18176;49.502;11.754;2022-12-18T20:14:47;98259.09;;;-0.99;52.60
21185;BME280;18176;49.502;11.754;2022-12-18T20:18:48;98252.44;;;-0.92;52.12
21185;BME280;18176;49.502;11.754;2022-12-18T20:22:48;98265.88;;;-1.07;52.45
21185;BME280;18176;49.502;11.754;2022-12-18T20:26:51;98257.94;;;-1.06;52.03
21185;BME280;18176;49.502;11.754;2022-12-18T20:30:58;98260.94;;;-0.90;52.01
21185;BME280;18176;49.502;11.754;2022-12-18T20:34:59;98246.13;;;-1.10;52.16
21185;BME280;18176;49.502;11.754;2022-12-18T20:39:04;98183.91;;;-1.54;52.07
21185;BME280;18176;49.502;11.754;2022-12-18T20:43:16;98198.06;;;-1.47;51.86
21185;BME280;18176;49.502;11.754;2022-12-18T20:47:17;98231.09;;;-1.27;51.87
21185;BME280;18176;49.502;11.754;2022-12-18T20:51:19;98249.03;;;-1.24;52.55
21185;BME280;18176;49.502;11.754;2022-12-18T20:55:20;98158.03;;;-1.76;52.26
21185;BME280;18176;49.502;11.754;2022-12-18T20:59:24;98262.91;;;-1.03;51.81
21185;BME280;18176;49.502;11.754;2022-12-18T21:03:25;98261.75;;;-1.10;51.79
21185;BME280;18176;49.502;11.754;2022-12-18T21:07:25;98214.81;;;-1.29;52.04
21185;BME280;18176;49.502;11.754;2022-12-18T21:11:29;98173.84;;;-1.68;52.17
21185;BME280;18176;49.502;11.754;2022-12-18T21:15:45;98153.78;;;-1.77;52.12
21185;BME280;18176;49.502;11.754;2022-12-18T21:19:46;98241.84;;;-1.00;51.78
21185;BME280;18176;49.502;11.754;2022-12-18T21:23:46;98232.28;;;-1.31;51.86
21185;BME280;18176;49.502;11.754;2022-12-18T21:27:47;98224.28;;;-1.39;52.11
21185;BME280;18176;49.502;11.754;2022-12-18T21:31:51;98230.03;;;-1.67;52.72